Savana — FAB5699 — position and weather

sailwx.info

Track history (hours):
 
Tides and Currents Weather Stations Pressure Air Temp Water Temp Dewpoint Dewpoint Depression Visibility Wind Speed Wind Dir Waves Ship Positions

Savana

Last reported at 2018-Jun-19 04:35 UTC. Time now 2018-Jun-19 12:26 UTC.
Position N 37°55' E 023°42'.

Length 13 m.

Type: Pleasure craft. MMSI: 347013860.

Date/timePositionNaut miles runAvg speedWind from/ knotsBaromVisibWave heightAir tempDewpointWater temp
2018-Jun-19 04:35N 37°55' E 023°42'0 0.0
2018-Jun-19 04:23N 37°55' E 023°42'0 0.0
2018-Jun-19 03:59N 37°55' E 023°42'0 0.0
2018-Jun-19 03:23N 37°55' E 023°42'0 0.0
2018-Jun-19 02:56N 37°55' E 023°42'0 0.0
2018-Jun-19 02:29N 37°55' E 023°42'0 0.0
2018-Jun-19 01:59N 37°55' E 023°42'0 0.0
2018-Jun-19 01:29N 37°55' E 023°42'0 0.0
2018-Jun-18 22:08N 37°55' E 023°42'1 3.4
2018-Jun-18 21:57N 37°54' E 023°42'4 7.0
2018-Jun-18 21:22N 37°50' E 023°43'71 7.3
2018-Jun-18 11:38N 37°11' E 024°58'1 6.8
2018-Jun-18 11:30N 37°11' E 024°59'3 6.9
2018-Jun-18 11:01N 37°09' E 025°02'  
2018-Jun-15 10:25N 37°02' E 025°06'1 1.3
2018-Jun-15 09:59N 37°02' E 025°05'0 0.0
2018-Jun-15 09:29N 37°02' E 025°05'0 0.0
2018-Jun-15 08:47N 37°02' E 025°05'0 0.0
2018-Jun-15 08:29N 37°02' E 025°05'0 0.0
2018-Jun-15 07:53N 37°02' E 025°05'0 0.0
2018-Jun-15 07:26N 37°02' E 025°05'0 0.0
2018-Jun-15 06:59N 37°02' E 025°05'0 0.0
2018-Jun-15 06:11N 37°02' E 025°05'0 0.0
2018-Jun-15 05:56N 37°02' E 025°05'0 0.0
2018-Jun-15 05:29N 37°02' E 025°05'0 0.0
2018-Jun-15 04:59N 37°02' E 025°05'0 0.0
2018-Jun-15 04:26N 37°02' E 025°05'0 0.0
2018-Jun-15 03:59N 37°02' E 025°05'0 0.0
2018-Jun-15 03:29N 37°02' E 025°05'0 0.0
2018-Jun-15 02:56N 37°02' E 025°05'0 0.0
2018-Jun-15 02:23N 37°02' E 025°05'0 0.0
2018-Jun-15 01:44N 37°02' E 025°05'0 0.0
2018-Jun-15 01:29N 37°02' E 025°05'0 0.0
2018-Jun-15 00:14N 37°02' E 025°05'0 0.0
2018-Jun-14 23:59N 37°02' E 025°05'0 0.0
2018-Jun-14 23:23N 37°02' E 025°05'0 0.0
2018-Jun-14 22:59N 37°02' E 025°05'0 0.0
2018-Jun-14 22:29N 37°02' E 025°05'0 0.0
2018-Jun-14 21:41N 37°02' E 025°05'0 0.0
2018-Jun-14 21:23N 37°02' E 025°05'0 0.0
2018-Jun-14 20:56N 37°02' E 025°05'0 0.0
2018-Jun-14 20:29N 37°02' E 025°05'0 0.0
2018-Jun-14 19:56N 37°02' E 025°05'0 0.0
2018-Jun-14 18:56N 37°02' E 025°05'0 0.0
2018-Jun-14 18:26N 37°02' E 025°05'0 0.0
2018-Jun-14 17:56N 37°02' E 025°05'0 0.0
2018-Jun-14 17:17N 37°02' E 025°05'0 0.0
2018-Jun-14 16:53N 37°02' E 025°05'0 0.0
2018-Jun-14 16:29N 37°02' E 025°05'0 0.0
2018-Jun-14 15:59N 37°02' E 025°05'0 0.0
2018-Jun-14 15:29N 37°02' E 025°05'0 0.1
2018-Jun-14 14:59N 37°02' E 025°05'11 4.9
2018-Jun-14 12:46N 37°09' E 025°16'1 1.6
2018-Jun-14 12:24N 37°09' E 025°16'0 0.0
2018-Jun-14 12:00N 37°09' E 025°16'1 0.3
2018-Jun-14 08:48N 37°09' E 025°17'1 4.3
2018-Jun-14 08:28N 37°09' E 025°19'3 4.4
2018-Jun-14 07:43N 37°06' E 025°21'1 0.4
2018-Jun-14 04:33N 37°06' E 025°22'0 0.0
2018-Jun-14 04:21N 37°06' E 025°22'0 0.0
2018-Jun-14 04:00N 37°06' E 025°22'0 0.0
2018-Jun-14 03:30N 37°06' E 025°22'0 0.0
2018-Jun-14 03:00N 37°06' E 025°22'0 0.0
2018-Jun-14 02:30N 37°06' E 025°22'0 0.0
2018-Jun-14 02:00N 37°06' E 025°22'0 0.0
2018-Jun-14 01:18N 37°06' E 025°22'0 0.0
2018-Jun-13 09:51N 37°06' E 025°22'3 6.5
2018-Jun-13 09:26N 37°09' E 025°21'  
Track history (hours):
 
Tides and Currents Weather Stations Pressure Air Temp Water Temp Dewpoint Dewpoint Depression Visibility Wind Speed Wind Dir Waves Ship Positions

Savana

Last reported at 2018-Jun-19 04:35 UTC. Time now 2018-Jun-19 12:26 UTC.
Position N 37°55' E 023°42'.

Length 13 m.

Type: Pleasure craft. MMSI: 347013860.

Date/timePositionNaut miles runAvg speedWind from/ knotsBaromVisibWave heightAir tempDewpointWater temp
2018-Jun-19 04:35N 37°55' E 023°42'0 0.0
2018-Jun-19 04:23N 37°55' E 023°42'0 0.0
2018-Jun-19 03:59N 37°55' E 023°42'0 0.0
2018-Jun-19 03:23N 37°55' E 023°42'0 0.0
2018-Jun-19 02:56N 37°55' E 023°42'0 0.0
2018-Jun-19 02:29N 37°55' E 023°42'0 0.0
2018-Jun-19 01:59N 37°55' E 023°42'0 0.0
2018-Jun-19 01:29N 37°55' E 023°42'0 0.0
2018-Jun-18 22:08N 37°55' E 023°42'1 3.4
2018-Jun-18 21:57N 37°54' E 023°42'4 7.0
2018-Jun-18 21:22N 37°50' E 023°43'71 7.3
2018-Jun-18 11:38N 37°11' E 024°58'1 6.8
2018-Jun-18 11:30N 37°11' E 024°59'3 6.9
2018-Jun-18 11:01N 37°09' E 025°02'  
2018-Jun-15 10:25N 37°02' E 025°06'1 1.3
2018-Jun-15 09:59N 37°02' E 025°05'0 0.0
2018-Jun-15 09:29N 37°02' E 025°05'0 0.0
2018-Jun-15 08:47N 37°02' E 025°05'0 0.0
2018-Jun-15 08:29N 37°02' E 025°05'0 0.0
2018-Jun-15 07:53N 37°02' E 025°05'0 0.0
2018-Jun-15 07:26N 37°02' E 025°05'0 0.0
2018-Jun-15 06:59N 37°02' E 025°05'0 0.0
2018-Jun-15 06:11N 37°02' E 025°05'0 0.0
2018-Jun-15 05:56N 37°02' E 025°05'0 0.0
2018-Jun-15 05:29N 37°02' E 025°05'0 0.0
2018-Jun-15 04:59N 37°02' E 025°05'0 0.0
2018-Jun-15 04:26N 37°02' E 025°05'0 0.0
2018-Jun-15 03:59N 37°02' E 025°05'0 0.0
2018-Jun-15 03:29N 37°02' E 025°05'0 0.0
2018-Jun-15 02:56N 37°02' E 025°05'0 0.0
2018-Jun-15 02:23N 37°02' E 025°05'0 0.0
2018-Jun-15 01:44N 37°02' E 025°05'0 0.0
2018-Jun-15 01:29N 37°02' E 025°05'0 0.0
2018-Jun-15 00:14N 37°02' E 025°05'0 0.0
2018-Jun-14 23:59N 37°02' E 025°05'0 0.0
2018-Jun-14 23:23N 37°02' E 025°05'0 0.0
2018-Jun-14 22:59N 37°02' E 025°05'0 0.0
2018-Jun-14 22:29N 37°02' E 025°05'0 0.0
2018-Jun-14 21:41N 37°02' E 025°05'0 0.0
2018-Jun-14 21:23N 37°02' E 025°05'0 0.0
2018-Jun-14 20:56N 37°02' E 025°05'0 0.0
2018-Jun-14 20:29N 37°02' E 025°05'0 0.0
2018-Jun-14 19:56N 37°02' E 025°05'0 0.0
2018-Jun-14 18:56N 37°02' E 025°05'0 0.0
2018-Jun-14 18:26N 37°02' E 025°05'0 0.0
2018-Jun-14 17:56N 37°02' E 025°05'0 0.0
2018-Jun-14 17:17N 37°02' E 025°05'0 0.0
2018-Jun-14 16:53N 37°02' E 025°05'0 0.0
2018-Jun-14 16:29N 37°02' E 025°05'0 0.0
2018-Jun-14 15:59N 37°02' E 025°05'0 0.0
2018-Jun-14 15:29N 37°02' E 025°05'0 0.1
2018-Jun-14 14:59N 37°02' E 025°05'11 4.9
2018-Jun-14 12:46N 37°09' E 025°16'1 1.6
2018-Jun-14 12:24N 37°09' E 025°16'0 0.0
2018-Jun-14 12:00N 37°09' E 025°16'1 0.3
2018-Jun-14 08:48N 37°09' E 025°17'1 4.3
2018-Jun-14 08:28N 37°09' E 025°19'3 4.4
2018-Jun-14 07:43N 37°06' E 025°21'1 0.4
2018-Jun-14 04:33N 37°06' E 025°22'0 0.0
2018-Jun-14 04:21N 37°06' E 025°22'0 0.0
2018-Jun-14 04:00N 37°06' E 025°22'0 0.0
2018-Jun-14 03:30N 37°06' E 025°22'0 0.0
2018-Jun-14 03:00N 37°06' E 025°22'0 0.0
2018-Jun-14 02:30N 37°06' E 025°22'0 0.0
2018-Jun-14 02:00N 37°06' E 025°22'0 0.0
2018-Jun-14 01:18N 37°06' E 025°22'0 0.0
2018-Jun-13 09:51N 37°06' E 025°22'3 6.5
2018-Jun-13 09:26N 37°09' E 025°21'  

Dump ship's entire track history